sensor_id;sensor_type;location;lat;lon;timestamp;temperature;humidity
11764;DHT22;5939;56.522;14.950;2022-10-17T00:01:11;11.30;99.90
11764;DHT22;5939;56.522;14.950;2022-10-17T00:03:38;11.30;99.90
11764;DHT22;5939;56.522;14.950;2022-10-17T00:06:09;11.30;99.90
11764;DHT22;5939;56.522;14.950;2022-10-17T00:08:37;11.30;99.90
11764;DHT22;5939;56.522;14.950;2022-10-17T00:11:07;11.30;99.90
11764;DHT22;5939;56.522;14.950;2022-10-17T00:13:34;11.30;99.90
11764;DHT22;5939;56.522;14.950;2022-10-17T00:16:00;11.30;99.90
11764;DHT22;5939;56.522;14.950;2022-10-17T00:18:26;11.30;99.90
11764;DHT22;5939;56.522;14.950;2022-10-17T00:20:51;11.20;99.90
11764;DHT22;5939;56.522;14.950;2022-10-17T00:23:18;11.20;99.90
11764;DHT22;5939;56.522;14.950;2022-10-17T00:25:43;11.20;99.90
11764;DHT22;5939;56.522;14.950;2022-10-17T00:28:10;11.20;99.90
11764;DHT22;5939;56.522;14.950;2022-10-17T00:30:36;11.10;99.90
11764;DHT22;5939;56.522;14.950;2022-10-17T00:33:02;11.10;99.90
11764;DHT22;5939;56.522;14.950;2022-10-17T00:35:28;11.10;99.90
11764;DHT22;5939;56.522;14.950;2022-10-17T00:37:53;11.10;99.90
11764;DHT22;5939;56.522;14.950;2022-10-17T00:40:19;11.10;99.90
11764;DHT22;5939;56.522;14.950;2022-10-17T00:42:45;11.10;99.90
11764;DHT22;5939;56.522;14.950;2022-10-17T00:45:28;11.10;99.90
11764;DHT22;5939;56.522;14.950;2022-10-17T00:48:06;11.10;99.90
11764;DHT22;5939;56.522;14.950;2022-10-17T00:50:34;11.10;99.90
11764;DHT22;5939;56.522;14.950;2022-10-17T00:53:01;11.00;99.90
11764;DHT22;5939;56.522;14.950;2022-10-17T00:55:32;11.00;99.90
11764;DHT22;5939;56.522;14.950;2022-10-17T00:58:01;11.00;99.90
11764;DHT22;5939;56.522;14.950;2022-10-17T01:00:27;11.00;99.90
11764;DHT22;5939;56.522;14.950;2022-10-17T01:02:53;11.00;99.90
11764;DHT22;5939;56.522;14.950;2022-10-17T01:05:19;11.00;99.90
11764;DHT22;5939;56.522;14.950;2022-10-17T01:07:46;11.00;99.90
11764;DHT22;5939;56.522;14.950;2022-10-17T01:10:12;11.00;99.90
11764;DHT22;5939;56.522;14.950;2022-10-17T01:15:48;10.90;99.90
11764;DHT22;5939;56.522;14.950;2022-10-17T01:23:45;10.90;99.90
11764;DHT22;5939;56.522;14.950;2022-10-17T01:31:59;10.90;99.90
11764;DHT22;5939;56.522;14.950;2022-10-17T01:34:52;10.80;99.90
11764;DHT22;5939;56.522;14.950;2022-10-17T01:37:43;10.80;99.90
11764;DHT22;5939;56.522;14.950;2022-10-17T01:40:21;10.80;99.90
11764;DHT22;5939;56.522;14.950;2022-10-17T01:43:02;10.80;99.90
11764;DHT22;5939;56.522;14.950;2022-10-17T01:45:38;10.80;99.90
11764;DHT22;5939;56.522;14.950;2022-10-17T01:48:12;10.80;99.90
11764;DHT22;5939;56.522;14.950;2022-10-17T01:50:44;10.70;99.90
11764;DHT22;5939;56.522;14.950;2022-10-17T01:53:14;10.70;99.90
11764;DHT22;5939;56.522;14.950;2022-10-17T01:55:44;10.70;99.90
11764;DHT22;5939;56.522;14.950;2022-10-17T01:58:34;10.70;99.90
11764;DHT22;5939;56.522;14.950;2022-10-17T02:01:04;10.70;99.90
11764;DHT22;5939;56.522;14.950;2022-10-17T02:03:31;10.70;99.90
11764;DHT22;5939;56.522;14.950;2022-10-17T02:05:59;10.70;99.90
11764;DHT22;5939;56.522;14.950;2022-10-17T02:08:27;10.70;99.90
11764;DHT22;5939;56.522;14.950;2022-10-17T02:10:57;10.60;99.90
11764;DHT22;5939;56.522;14.950;2022-10-17T02:13:55;10.60;99.90
11764;DHT22;5939;56.522;14.950;2022-10-17T02:26:52;10.60;99.90
11764;DHT22;5939;56.522;14.950;2022-10-17T02:29:26;10.50;99.90
11764;DHT22;5939;56.522;14.950;2022-10-17T02:32:02;10.50;99.90
11764;DHT22;5939;56.522;14.950;2022-10-17T02:34:40;10.50;99.90
11764;DHT22;5939;56.522;14.950;2022-10-17T02:37:09;10.50;99.90
11764;DHT22;5939;56.522;14.950;2022-10-17T02:39:38;10.50;99.90
11764;DHT22;5939;56.522;14.950;2022-10-17T02:42:07;10.50;99.90
11764;DHT22;5939;56.522;14.950;2022-10-17T02:44:34;10.50;99.90
11764;DHT22;5939;56.522;14.950;2022-10-17T02:47:33;10.50;99.90
11764;DHT22;5939;56.522;14.950;2022-10-17T02:49:59;10.40;99.90
11764;DHT22;5939;56.522;14.950;2022-10-17T02:55:11;10.40;99.90
11764;DHT22;5939;56.522;14.950;2022-10-17T02:57:41;10.40;99.90
11764;DHT22;5939;56.522;14.950;2022-10-17T03:00:10;10.40;99.90
11764;DHT22;5939;56.522;14.950;2022-10-17T03:02:42;10.40;99.90
11764;DHT22;5939;56.522;14.950;2022-10-17T03:05:09;10.40;99.90
11764;DHT22;5939;56.522;14.950;2022-10-17T03:07:35;10.40;99.90
11764;DHT22;5939;56.522;14.950;2022-10-17T03:10:01;10.40;99.90
11764;DHT22;5939;56.522;14.950;2022-10-17T03:12:26;10.30;99.90
11764;DHT22;5939;56.522;14.950;2022-10-17T03:14:52;10.30;99.90
11764;DHT22;5939;56.522;14.950;2022-10-17T03:17:18;10.30;99.90
11764;DHT22;5939;56.522;14.950;2022-10-17T03:19:43;10.30;99.90
11764;DHT22;5939;56.522;14.950;2022-10-17T03:22:09;10.30;99.90
11764;DHT22;5939;56.522;14.950;2022-10-17T03:24:35;10.30;99.90
11764;DHT22;5939;56.522;14.950;2022-10-17T03:27:00;10.30;99.90
11764;DHT22;5939;56.522;14.950;2022-10-17T03:29:26;10.30;99.90
11764;DHT22;5939;56.522;14.950;2022-10-17T03:31:51;10.20;99.90
11764;DHT22;5939;56.522;14.950;2022-10-17T03:34:17;10.20;99.90
11764;DHT22;5939;56.522;14.950;2022-10-17T03:36:43;10.20;99.90
11764;DHT22;5939;56.522;14.950;2022-10-17T03:39:09;10.20;99.90
11764;DHT22;5939;56.522;14.950;2022-10-17T03:41:35;10.20;99.90
11764;DHT22;5939;56.522;14.950;2022-10-17T03:44:01;10.20;99.90
11764;DHT22;5939;56.522;14.950;2022-10-17T03:46:26;10.20;99.90
11764;DHT22;5939;56.522;14.950;2022-10-17T03:48:52;10.20;99.90
11764;DHT22;5939;56.522;14.950;2022-10-17T03:51:18;10.20;99.90
11764;DHT22;5939;56.522;14.950;2022-10-17T03:53:44;10.20;99.90
11764;DHT22;5939;56.522;14.950;2022-10-17T03:56:24;10.20;99.90
11764;DHT22;5939;56.522;14.950;2022-10-17T03:58:49;10.20;99.90
11764;DHT22;5939;56.522;14.950;2022-10-17T04:01:17;10.10;99.90
11764;DHT22;5939;56.522;14.950;2022-10-17T04:03:43;10.10;99.90
11764;DHT22;5939;56.522;14.950;2022-10-17T04:06:12;10.10;99.90
11764;DHT22;5939;56.522;14.950;2022-10-17T04:08:38;10.10;99.90
11764;DHT22;5939;56.522;14.950;2022-10-17T04:11:06;10.10;99.90
11764;DHT22;5939;56.522;14.950;2022-10-17T04:13:32;10.10;99.90
11764;DHT22;5939;56.522;14.950;2022-10-17T04:16:03;10.10;99.90
11764;DHT22;5939;56.522;14.950;2022-10-17T04:18:29;10.00;99.90
11764;DHT22;5939;56.522;14.950;2022-10-17T04:20:55;10.10;99.90
11764;DHT22;5939;56.522;14.950;2022-10-17T04:23:21;10.00;99.90
11764;DHT22;5939;56.522;14.950;2022-10-17T04:25:47;10.00;99.90
11764;DHT22;5939;56.522;14.950;2022-10-17T04:28:13;10.00;99.90
11764;DHT22;5939;56.522;14.950;2022-10-17T04:30:39;10.00;99.90
11764;DHT22;5939;56.522;14.950;2022-10-17T04:33:05;10.00;99.90
11764;DHT22;5939;56.522;14.950;2022-10-17T04:35:31;10.00;99.90
11764;DHT22;5939;56.522;14.950;2022-10-17T04:37:56;10.00;99.90
11764;DHT22;5939;56.522;14.950;2022-10-17T04:40:22;10.00;99.90
11764;DHT22;5939;56.522;14.950;2022-10-17T04:42:48;10.00;99.90
11764;DHT22;5939;56.522;14.950;2022-10-17T04:45:13;10.00;99.90
11764;DHT22;5939;56.522;14.950;2022-10-17T04:47:39;10.00;99.90
11764;DHT22;5939;56.522;14.950;2022-10-17T04:50:05;9.90;99.90
11764;DHT22;5939;56.522;14.950;2022-10-17T04:52:30;9.90;99.90
11764;DHT22;5939;56.522;14.950;2022-10-17T04:54:56;9.90;99.90
11764;DHT22;5939;56.522;14.950;2022-10-17T04:57:22;9.90;99.90
11764;DHT22;5939;56.522;14.950;2022-10-17T04:59:49;9.90;99.90
11764;DHT22;5939;56.522;14.950;2022-10-17T05:02:15;9.90;99.90
11764;DHT22;5939;56.522;14.950;2022-10-17T05:04:40;9.90;99.90
11764;DHT22;5939;56.522;14.950;2022-10-17T05:07:06;9.90;99.90
11764;DHT22;5939;56.522;14.950;2022-10-17T05:09:32;9.90;99.90
11764;DHT22;5939;56.522;14.950;2022-10-17T05:11:57;9.80;99.90
11764;DHT22;5939;56.522;14.950;2022-10-17T05:14:23;9.80;99.90
11764;DHT22;5939;56.522;14.950;2022-10-17T05:16:48;9.80;99.90
11764;DHT22;5939;56.522;14.950;2022-10-17T05:19:14;9.80;99.90
11764;DHT22;5939;56.522;14.950;2022-10-17T05:21:40;9.80;99.90
11764;DHT22;5939;56.522;14.950;2022-10-17T05:24:07;9.80;99.90
11764;DHT22;5939;56.522;14.950;2022-10-17T05:26:33;9.80;99.90
11764;DHT22;5939;56.522;14.950;2022-10-17T05:29:00;9.80;99.90
11764;DHT22;5939;56.522;14.950;2022-10-17T05:31:27;9.80;99.90
11764;DHT22;5939;56.522;14.950;2022-10-17T05:33:53;9.70;99.90
11764;DHT22;5939;56.522;14.950;2022-10-17T05:36:19;9.80;99.90
11764;DHT22;5939;56.522;14.950;2022-10-17T05:38:49;9.70;99.90
11764;DHT22;5939;56.522;14.950;2022-10-17T05:41:16;9.70;99.90
11764;DHT22;5939;56.522;14.950;2022-10-17T05:43:42;9.70;99.90
11764;DHT22;5939;56.522;14.950;2022-10-17T05:46:08;9.70;99.90
11764;DHT22;5939;56.522;14.950;2022-10-17T05:48:34;9.70;99.90
11764;DHT22;5939;56.522;14.950;2022-10-17T05:51:02;9.70;99.90
11764;DHT22;5939;56.522;14.950;2022-10-17T05:53:33;9.70;99.90
11764;DHT22;5939;56.522;14.950;2022-10-17T05:56:00;9.70;99.90
11764;DHT22;5939;56.522;14.950;2022-10-17T05:58:26;9.70;99.90
11764;DHT22;5939;56.522;14.950;2022-10-17T06:01:00;9.70;99.90
11764;DHT22;5939;56.522;14.950;2022-10-17T06:03:26;9.70;99.90
11764;DHT22;5939;56.522;14.950;2022-10-17T06:05:52;9.70;99.90
11764;DHT22;5939;56.522;14.950;2022-10-17T06:08:19;9.70;99.90
11764;DHT22;5939;56.522;14.950;2022-10-17T06:10:48;9.70;99.90
11764;DHT22;5939;56.522;14.950;2022-10-17T06:13:16;9.70;99.90
11764;DHT22;5939;56.522;14.950;2022-10-17T06:15:42;9.70;99.90
11764;DHT22;5939;56.522;14.950;2022-10-17T06:18:08;9.60;99.90
11764;DHT22;5939;56.522;14.950;2022-10-17T06:20:33;9.60;99.90
11764;DHT22;5939;56.522;14.950;2022-10-17T06:22:59;9.60;99.90
11764;DHT22;5939;56.522;14.950;2022-10-17T06:25:25;9.70;99.90
11764;DHT22;5939;56.522;14.950;2022-10-17T06:27:50;9.60;99.90
11764;DHT22;5939;56.522;14.950;2022-10-17T06:30:16;9.60;99.90
11764;DHT22;5939;56.522;14.950;2022-10-17T06:32:41;9.60;99.90
11764;DHT22;5939;56.522;14.950;2022-10-17T06:35:07;9.60;99.90
11764;DHT22;5939;56.522;14.950;2022-10-17T06:37:33;9.60;99.90
11764;DHT22;5939;56.522;14.950;2022-10-17T06:39:59;9.60;99.90
11764;DHT22;5939;56.522;14.950;2022-10-17T06:42:25;9.60;99.90
11764;DHT22;5939;56.522;14.950;2022-10-17T06:44:50;9.60;99.90
11764;DHT22;5939;56.522;14.950;2022-10-17T06:47:16;9.60;99.90
11764;DHT22;5939;56.522;14.950;2022-10-17T06:49:42;9.60;99.90
11764;DHT22;5939;56.522;14.950;2022-10-17T06:52:09;9.60;99.90
11764;DHT22;5939;56.522;14.950;2022-10-17T06:54:34;9.60;99.90
11764;DHT22;5939;56.522;14.950;2022-10-17T06:57:00;9.60;99.90
11764;DHT22;5939;56.522;14.950;2022-10-17T06:59:26;9.60;99.90
11764;DHT22;5939;56.522;14.950;2022-10-17T07:01:51;9.70;99.90
11764;DHT22;5939;56.522;14.950;2022-10-17T07:04:17;9.60;99.90
11764;DHT22;5939;56.522;14.950;2022-10-17T07:06:42;9.60;99.90
11764;DHT22;5939;56.522;14.950;2022-10-17T07:09:08;9.70;99.90
11764;DHT22;5939;56.522;14.950;2022-10-17T07:11:34;9.70;99.90
11764;DHT22;5939;56.522;14.950;2022-10-17T07:14:00;9.60;99.90
11764;DHT22;5939;56.522;14.950;2022-10-17T07:16:26;9.60;99.90
11764;DHT22;5939;56.522;14.950;2022-10-17T07:18:52;9.70;99.90
11764;DHT22;5939;56.522;14.950;2022-10-17T07:21:19;9.70;99.90
11764;DHT22;5939;56.522;14.950;2022-10-17T07:23:45;9.70;99.90
11764;DHT22;5939;56.522;14.950;2022-10-17T07:26:13;9.70;99.90
11764;DHT22;5939;56.522;14.950;2022-10-17T07:28:41;9.70;99.90
11764;DHT22;5939;56.522;14.950;2022-10-17T07:31:10;9.70;99.90
11764;DHT22;5939;56.522;14.950;2022-10-17T07:33:36;9.70;99.90
11764;DHT22;5939;56.522;14.950;2022-10-17T07:36:02;9.70;99.90
11764;DHT22;5939;56.522;14.950;2022-10-17T07:38:28;9.70;99.90
11764;DHT22;5939;56.522;14.950;2022-10-17T07:41:00;9.80;99.90
11764;DHT22;5939;56.522;14.950;2022-10-17T07:43:27;9.80;99.90
11764;DHT22;5939;56.522;14.950;2022-10-17T07:45:53;9.80;99.90
11764;DHT22;5939;56.522;14.950;2022-10-17T07:48:21;9.80;99.90
11764;DHT22;5939;56.522;14.950;2022-10-17T07:50:47;9.80;99.90
11764;DHT22;5939;56.522;14.950;2022-10-17T07:53:13;9.90;99.90
11764;DHT22;5939;56.522;14.950;2022-10-17T07:55:39;9.90;99.90
11764;DHT22;5939;56.522;14.950;2022-10-17T07:58:06;9.90;99.90
11764;DHT22;5939;56.522;14.950;2022-10-17T08:00:32;9.90;99.90
11764;DHT22;5939;56.522;14.950;2022-10-17T08:02:58;9.90;99.90
11764;DHT22;5939;56.522;14.950;2022-10-17T08:05:23;9.90;99.90
11764;DHT22;5939;56.522;14.950;2022-10-17T08:07:49;9.90;99.90
11764;DHT22;5939;56.522;14.950;2022-10-17T08:10:15;10.00;99.90
11764;DHT22;5939;56.522;14.950;2022-10-17T08:12:41;10.00;99.90
11764;DHT22;5939;56.522;14.950;2022-10-17T08:15:08;10.00;99.90
11764;DHT22;5939;56.522;14.950;2022-10-17T08:17:35;10.00;99.90
11764;DHT22;5939;56.522;14.950;2022-10-17T08:20:03;10.00;99.90
11764;DHT22;5939;56.522;14.950;2022-10-17T08:22:29;10.10;99.90
11764;DHT22;5939;56.522;14.950;2022-10-17T08:24:54;10.10;99.90
11764;DHT22;5939;56.522;14.950;2022-10-17T08:27:20;10.10;99.90
11764;DHT22;5939;56.522;14.950;2022-10-17T08:29:49;10.20;99.90
11764;DHT22;5939;56.522;14.950;2022-10-17T08:32:22;10.20;99.90
11764;DHT22;5939;56.522;14.950;2022-10-17T08:34:50;10.20;99.90
11764;DHT22;5939;56.522;14.950;2022-10-17T08:37:15;10.20;99.90
11764;DHT22;5939;56.522;14.950;2022-10-17T08:39:41;10.30;99.90
11764;DHT22;5939;56.522;14.950;2022-10-17T08:45:11;10.30;99.90
11764;DHT22;5939;56.522;14.950;2022-10-17T08:47:51;10.30;99.90
11764;DHT22;5939;56.522;14.950;2022-10-17T08:53:14;10.40;99.90
11764;DHT22;5939;56.522;14.950;2022-10-17T08:55:45;10.40;99.90
11764;DHT22;5939;56.522;14.950;2022-10-17T08:58:23;10.50;99.90
11764;DHT22;5939;56.522;14.950;2022-10-17T09:06:58;10.60;99.90
11764;DHT22;5939;56.522;14.950;2022-10-17T09:12:52;10.70;99.90
11764;DHT22;5939;56.522;14.950;2022-10-17T09:15:49;10.70;99.90
11764;DHT22;5939;56.522;14.950;2022-10-17T09:18:36;10.80;99.90
11764;DHT22;5939;56.522;14.950;2022-10-17T09:21:56;10.80;99.90
11764;DHT22;5939;56.522;14.950;2022-10-17T09:24:03;10.80;99.90
11764;DHT22;5939;56.522;14.950;2022-10-17T09:26:30;10.90;99.90
11764;DHT22;5939;56.522;14.950;2022-10-17T09:28:58;10.90;99.90
11764;DHT22;5939;56.522;14.950;2022-10-17T09:31:29;11.00;99.90
11764;DHT22;5939;56.522;14.950;2022-10-17T09:34:00;11.00;99.90
11764;DHT22;5939;56.522;14.950;2022-10-17T09:36:32;11.10;99.90
11764;DHT22;5939;56.522;14.950;2022-10-17T09:39:05;11.10;99.90
11764;DHT22;5939;56.522;14.950;2022-10-17T09:41:48;11.20;99.90
11764;DHT22;5939;56.522;14.950;2022-10-17T09:44:22;11.20;99.90
11764;DHT22;5939;56.522;14.950;2022-10-17T09:49:41;11.30;99.90
11764;DHT22;5939;56.522;14.950;2022-10-17T09:52:27;11.40;99.90
11764;DHT22;5939;56.522;14.950;2022-10-17T09:54:58;11.40;99.90
11764;DHT22;5939;56.522;14.950;2022-10-17T09:57:26;11.50;99.90
11764;DHT22;5939;56.522;14.950;2022-10-17T10:00:00;11.60;99.90
11764;DHT22;5939;56.522;14.950;2022-10-17T10:02:28;11.60;99.90
11764;DHT22;5939;56.522;14.950;2022-10-17T10:05:05;11.60;99.90
11764;DHT22;5939;56.522;14.950;2022-10-17T10:07:36;11.70;99.90
11764;DHT22;5939;56.522;14.950;2022-10-17T10:10:04;11.70;99.90
11764;DHT22;5939;56.522;14.950;2022-10-17T10:12:36;11.80;99.90
11764;DHT22;5939;56.522;14.950;2022-10-17T10:15:30;11.80;99.90
11764;DHT22;5939;56.522;14.950;2022-10-17T10:17:56;11.80;99.90
11764;DHT22;5939;56.522;14.950;2022-10-17T10:23:14;11.80;99.90
11764;DHT22;5939;56.522;14.950;2022-10-17T10:25:52;11.90;99.90
11764;DHT22;5939;56.522;14.950;2022-10-17T10:28:18;11.90;99.90
11764;DHT22;5939;56.522;14.950;2022-10-17T10:30:50;11.90;99.90
11764;DHT22;5939;56.522;14.950;2022-10-17T10:33:19;11.90;99.90
11764;DHT22;5939;56.522;14.950;2022-10-17T10:35:53;12.10;99.90
11764;DHT22;5939;56.522;14.950;2022-10-17T10:38:20;12.00;99.90
11764;DHT22;5939;56.522;14.950;2022-10-17T10:40:56;12.00;99.90
11764;DHT22;5939;56.522;14.950;2022-10-17T10:43:37;12.00;99.90
11764;DHT22;5939;56.522;14.950;2022-10-17T10:46:24;12.00;99.90
11764;DHT22;5939;56.522;14.950;2022-10-17T10:48:52;12.00;99.90
11764;DHT22;5939;56.522;14.950;2022-10-17T10:51:23;12.00;99.90
11764;DHT22;5939;56.522;14.950;2022-10-17T10:54:19;12.10;99.90
11764;DHT22;5939;56.522;14.950;2022-10-17T10:56:55;12.10;99.90
11764;DHT22;5939;56.522;14.950;2022-10-17T11:01:51;12.10;99.90
11764;DHT22;5939;56.522;14.950;2022-10-17T11:07:20;12.10;99.90
11764;DHT22;5939;56.522;14.950;2022-10-17T11:12:30;12.20;99.90
11764;DHT22;5939;56.522;14.950;2022-10-17T11:17:45;12.20;99.90
11764;DHT22;5939;56.522;14.950;2022-10-17T11:20:20;12.20;99.90
11764;DHT22;5939;56.522;14.950;2022-10-17T11:23:19;12.20;99.90
11764;DHT22;5939;56.522;14.950;2022-10-17T11:25:50;12.20;99.90
11764;DHT22;5939;56.522;14.950;2022-10-17T11:28:21;12.20;99.90
11764;DHT22;5939;56.522;14.950;2022-10-17T11:31:07;12.30;99.90
11764;DHT22;5939;56.522;14.950;2022-10-17T11:36:08;12.30;99.90
11764;DHT22;5939;56.522;14.950;2022-10-17T11:38:57;12.30;99.90
11764;DHT22;5939;56.522;14.950;2022-10-17T11:41:43;12.30;99.90
11764;DHT22;5939;56.522;14.950;2022-10-17T11:44:34;12.30;99.90
11764;DHT22;5939;56.522;14.950;2022-10-17T11:47:13;12.30;99.90
11764;DHT22;5939;56.522;14.950;2022-10-17T11:49:49;12.30;99.90
11764;DHT22;5939;56.522;14.950;2022-10-17T11:52:40;12.30;99.90
11764;DHT22;5939;56.522;14.950;2022-10-17T11:55:29;12.40;99.90
11764;DHT22;5939;56.522;14.950;2022-10-17T12:07:07;12.40;99.90
11764;DHT22;5939;56.522;14.950;2022-10-17T12:09:56;12.40;99.90
11764;DHT22;5939;56.522;14.950;2022-10-17T12:12:25;12.40;99.90
11764;DHT22;5939;56.522;14.950;2022-10-17T12:14:52;12.50;99.90
11764;DHT22;5939;56.522;14.950;2022-10-17T12:17:35;12.50;99.90
11764;DHT22;5939;56.522;14.950;2022-10-17T12:26:00;12.50;99.90
11764;DHT22;5939;56.522;14.950;2022-10-17T12:28:41;12.50;99.90
11764;DHT22;5939;56.522;14.950;2022-10-17T12:33:58;12.50;99.90
11764;DHT22;5939;56.522;14.950;2022-10-17T12:49:47;12.60;99.90
11764;DHT22;5939;56.522;14.950;2022-10-17T12:58:11;12.60;99.90
11764;DHT22;5939;56.522;14.950;2022-10-17T13:00:45;12.60;99.90
11764;DHT22;5939;56.522;14.950;2022-10-17T13:03:19;12.60;99.90
11764;DHT22;5939;56.522;14.950;2022-10-17T13:05:54;12.70;99.90
11764;DHT22;5939;56.522;14.950;2022-10-17T13:10:53;12.70;99.90
11764;DHT22;5939;56.522;14.950;2022-10-17T13:16:03;12.70;99.90
11764;DHT22;5939;56.522;14.950;2022-10-17T13:18:29;12.70;99.90
11764;DHT22;5939;56.522;14.950;2022-10-17T13:21:03;12.70;99.90
11764;DHT22;5939;56.522;14.950;2022-10-17T13:23:34;12.70;99.90
11764;DHT22;5939;56.522;14.950;2022-10-17T13:26:16;12.70;99.90
11764;DHT22;5939;56.522;14.950;2022-10-17T13:28:45;12.70;99.90
11764;DHT22;5939;56.522;14.950;2022-10-17T13:31:36;12.70;99.90
11764;DHT22;5939;56.522;14.950;2022-10-17T13:34:23;12.80;99.90
11764;DHT22;5939;56.522;14.950;2022-10-17T13:37:00;12.80;99.90
11764;DHT22;5939;56.522;14.950;2022-10-17T13:39:31;12.80;99.90
11764;DHT22;5939;56.522;14.950;2022-10-17T13:41:58;12.80;99.90
11764;DHT22;5939;56.522;14.950;2022-10-17T13:44:26;12.80;99.90
11764;DHT22;5939;56.522;14.950;2022-10-17T13:46:53;12.80;99.90
11764;DHT22;5939;56.522;14.950;2022-10-17T13:49:35;12.80;99.90
11764;DHT22;5939;56.522;14.950;2022-10-17T13:52:05;12.80;99.90
11764;DHT22;5939;56.522;14.950;2022-10-17T13:54:39;12.80;99.90
11764;DHT22;5939;56.522;14.950;2022-10-17T13:57:27;12.80;99.90
11764;DHT22;5939;56.522;14.950;2022-10-17T14:00:26;12.80;99.90
11764;DHT22;5939;56.522;14.950;2022-10-17T14:02:51;12.80;99.90
11764;DHT22;5939;56.522;14.950;2022-10-17T14:05:19;12.90;99.90
11764;DHT22;5939;56.522;14.950;2022-10-17T14:07:51;12.90;99.90
11764;DHT22;5939;56.522;14.950;2022-10-17T14:10:32;12.90;99.90
11764;DHT22;5939;56.522;14.950;2022-10-17T14:12:58;12.90;99.90
11764;DHT22;5939;56.522;14.950;2022-10-17T14:15:30;12.90;99.90
11764;DHT22;5939;56.522;14.950;2022-10-17T14:18:01;12.90;99.90
11764;DHT22;5939;56.522;14.950;2022-10-17T14:20:28;12.90;99.90
11764;DHT22;5939;56.522;14.950;2022-10-17T14:22:55;12.90;99.90
11764;DHT22;5939;56.522;14.950;2022-10-17T14:25:32;12.90;99.90
11764;DHT22;5939;56.522;14.950;2022-10-17T14:28:13;12.90;99.90
11764;DHT22;5939;56.522;14.950;2022-10-17T14:30:45;12.90;99.90
11764;DHT22;5939;56.522;14.950;2022-10-17T14:33:22;12.90;99.90
11764;DHT22;5939;56.522;14.950;2022-10-17T14:35:49;12.90;99.90
11764;DHT22;5939;56.522;14.950;2022-10-17T14:38:16;12.90;99.90
11764;DHT22;5939;56.522;14.950;2022-10-17T14:40:49;12.90;99.90
11764;DHT22;5939;56.522;14.950;2022-10-17T14:43:20;12.90;99.90
11764;DHT22;5939;56.522;14.950;2022-10-17T14:45:47;12.90;99.90
11764;DHT22;5939;56.522;14.950;2022-10-17T14:48:19;12.90;99.90
11764;DHT22;5939;56.522;14.950;2022-10-17T14:51:11;12.90;99.90
11764;DHT22;5939;56.522;14.950;2022-10-17T14:53:38;12.90;99.90
11764;DHT22;5939;56.522;14.950;2022-10-17T14:56:26;12.90;99.90
11764;DHT22;5939;56.522;14.950;2022-10-17T14:58:52;12.90;99.90
11764;DHT22;5939;56.522;14.950;2022-10-17T15:01:18;12.90;99.90
11764;DHT22;5939;56.522;14.950;2022-10-17T15:03:44;12.90;99.90
11764;DHT22;5939;56.522;14.950;2022-10-17T15:06:21;13.00;99.90
11764;DHT22;5939;56.522;14.950;2022-10-17T15:08:47;13.00;99.90
11764;DHT22;5939;56.522;14.950;2022-10-17T15:11:13;13.00;99.90
11764;DHT22;5939;56.522;14.950;2022-10-17T15:13:39;13.00;99.90
11764;DHT22;5939;56.522;14.950;2022-10-17T15:16:23;13.00;99.90
11764;DHT22;5939;56.522;14.950;2022-10-17T15:18:50;13.00;99.90
11764;DHT22;5939;56.522;14.950;2022-10-17T15:21:18;13.00;99.90
11764;DHT22;5939;56.522;14.950;2022-10-17T15:23:44;13.00;99.90
11764;DHT22;5939;56.522;14.950;2022-10-17T15:26:13;13.00;99.90
11764;DHT22;5939;56.522;14.950;2022-10-17T15:28:40;13.00;99.90
11764;DHT22;5939;56.522;14.950;2022-10-17T15:31:12;13.00;99.90
11764;DHT22;5939;56.522;14.950;2022-10-17T15:33:38;13.00;99.90
11764;DHT22;5939;56.522;14.950;2022-10-17T15:36:04;13.00;99.90
11764;DHT22;5939;56.522;14.950;2022-10-17T15:38:30;13.00;99.90
11764;DHT22;5939;56.522;14.950;2022-10-17T15:40:55;13.00;99.90
11764;DHT22;5939;56.522;14.950;2022-10-17T15:43:21;13.00;99.90
11764;DHT22;5939;56.522;14.950;2022-10-17T15:45:47;13.00;99.90
11764;DHT22;5939;56.522;14.950;2022-10-17T15:48:25;13.00;99.90
11764;DHT22;5939;56.522;14.950;2022-10-17T15:50:52;13.00;99.90
11764;DHT22;5939;56.522;14.950;2022-10-17T15:53:18;13.00;99.90
11764;DHT22;5939;56.522;14.950;2022-10-17T15:55:44;13.00;99.90
11764;DHT22;5939;56.522;14.950;2022-10-17T15:58:14;13.00;99.90
11764;DHT22;5939;56.522;14.950;2022-10-17T16:00:40;13.00;99.90
11764;DHT22;5939;56.522;14.950;2022-10-17T16:03:06;13.00;99.90
11764;DHT22;5939;56.522;14.950;2022-10-17T16:05:31;13.00;99.90
11764;DHT22;5939;56.522;14.950;2022-10-17T16:07:57;13.00;99.90
11764;DHT22;5939;56.522;14.950;2022-10-17T16:10:23;13.00;99.90
11764;DHT22;5939;56.522;14.950;2022-10-17T16:12:50;13.00;99.90
11764;DHT22;5939;56.522;14.950;2022-10-17T16:15:25;13.00;99.90
11764;DHT22;5939;56.522;14.950;2022-10-17T16:17:53;13.00;99.90
11764;DHT22;5939;56.522;14.950;2022-10-17T16:20:20;13.00;99.90
11764;DHT22;5939;56.522;14.950;2022-10-17T16:22:47;13.00;99.90
11764;DHT22;5939;56.522;14.950;2022-10-17T16:25:25;13.00;99.90
11764;DHT22;5939;56.522;14.950;2022-10-17T16:27:53;13.00;99.90
11764;DHT22;5939;56.522;14.950;2022-10-17T16:30:21;13.00;99.90
11764;DHT22;5939;56.522;14.950;2022-10-17T16:32:47;13.00;99.90
11764;DHT22;5939;56.522;14.950;2022-10-17T16:35:33;13.00;99.90
11764;DHT22;5939;56.522;14.950;2022-10-17T16:37:59;13.00;99.90
11764;DHT22;5939;56.522;14.950;2022-10-17T16:40:24;13.00;99.90
11764;DHT22;5939;56.522;14.950;2022-10-17T16:42:50;13.00;99.90
11764;DHT22;5939;56.522;14.950;2022-10-17T16:45:18;13.00;99.90
11764;DHT22;5939;56.522;14.950;2022-10-17T16:47:44;13.00;99.90
11764;DHT22;5939;56.522;14.950;2022-10-17T16:50:10;13.00;99.90
11764;DHT22;5939;56.522;14.950;2022-10-17T16:52:36;13.00;99.90
11764;DHT22;5939;56.522;14.950;2022-10-17T16:55:01;13.00;99.90
11764;DHT22;5939;56.522;14.950;2022-10-17T16:57:27;13.00;99.90
11764;DHT22;5939;56.522;14.950;2022-10-17T16:59:53;13.00;99.90
11764;DHT22;5939;56.522;14.950;2022-10-17T17:02:18;13.00;99.90
11764;DHT22;5939;56.522;14.950;2022-10-17T17:04:44;13.00;99.90
11764;DHT22;5939;56.522;14.950;2022-10-17T17:07:10;13.00;99.90
11764;DHT22;5939;56.522;14.950;2022-10-17T17:09:35;13.10;99.90
11764;DHT22;5939;56.522;14.950;2022-10-17T17:12:01;13.10;99.90
11764;DHT22;5939;56.522;14.950;2022-10-17T17:14:27;13.00;99.90
11764;DHT22;5939;56.522;14.950;2022-10-17T17:16:53;13.10;99.90
11764;DHT22;5939;56.522;14.950;2022-10-17T17:19:18;13.10;99.90
11764;DHT22;5939;56.522;14.950;2022-10-17T17:21:45;13.10;99.90
11764;DHT22;5939;56.522;14.950;2022-10-17T17:24:16;13.10;99.90
11764;DHT22;5939;56.522;14.950;2022-10-17T17:26:42;13.10;99.90
11764;DHT22;5939;56.522;14.950;2022-10-17T17:29:08;13.10;99.90
11764;DHT22;5939;56.522;14.950;2022-10-17T17:31:36;13.10;99.90
11764;DHT22;5939;56.522;14.950;2022-10-17T17:34:03;13.10;99.90
11764;DHT22;5939;56.522;14.950;2022-10-17T17:36:31;13.10;99.90